sensor_id;sensor_type;location;lat;lon;timestamp;temperature;humidity
9403;DHT22;4741;49.834;10.740;2023-06-04T00:01:26;10.50;99.90
9403;DHT22;4741;49.834;10.740;2023-06-04T00:03:53;10.60;99.90
9403;DHT22;4741;49.834;10.740;2023-06-04T00:06:20;10.70;99.90
9403;DHT22;4741;49.834;10.740;2023-06-04T00:08:46;10.40;99.90
9403;DHT22;4741;49.834;10.740;2023-06-04T00:13:40;9.80;99.90
9403;DHT22;4741;49.834;10.740;2023-06-04T00:16:07;9.80;99.90
9403;DHT22;4741;49.834;10.740;2023-06-04T00:18:33;9.60;99.90
9403;DHT22;4741;49.834;10.740;2023-06-04T00:21:00;9.60;99.90
9403;DHT22;4741;49.834;10.740;2023-06-04T00:23:27;10.00;99.90
9403;DHT22;4741;49.834;10.740;2023-06-04T00:25:53;9.60;99.90
9403;DHT22;4741;49.834;10.740;2023-06-04T00:28:20;9.60;99.90
9403;DHT22;4741;49.834;10.740;2023-06-04T00:30:48;9.70;99.90
9403;DHT22;4741;49.834;10.740;2023-06-04T00:33:14;10.00;99.90
9403;DHT22;4741;49.834;10.740;2023-06-04T00:35:41;9.90;99.90
9403;DHT22;4741;49.834;10.740;2023-06-04T00:38:08;9.90;99.90
9403;DHT22;4741;49.834;10.740;2023-06-04T00:40:34;9.90;99.90
9403;DHT22;4741;49.834;10.740;2023-06-04T00:43:01;9.80;99.90
9403;DHT22;4741;49.834;10.740;2023-06-04T00:45:29;9.70;99.90
9403;DHT22;4741;49.834;10.740;2023-06-04T00:47:57;9.70;99.90
9403;DHT22;4741;49.834;10.740;2023-06-04T00:50:24;9.70;99.90
9403;DHT22;4741;49.834;10.740;2023-06-04T00:52:51;9.40;99.90
9403;DHT22;4741;49.834;10.740;2023-06-04T00:55:17;9.50;99.90
9403;DHT22;4741;49.834;10.740;2023-06-04T00:57:45;9.50;99.90
9403;DHT22;4741;49.834;10.740;2023-06-04T01:00:14;9.00;99.90
9403;DHT22;4741;49.834;10.740;2023-06-04T01:05:14;9.10;99.90
9403;DHT22;4741;49.834;10.740;2023-06-04T01:07:44;9.00;99.90
9403;DHT22;4741;49.834;10.740;2023-06-04T01:10:13;9.30;99.90
9403;DHT22;4741;49.834;10.740;2023-06-04T01:12:42;9.00;99.90
9403;DHT22;4741;49.834;10.740;2023-06-04T01:15:09;9.80;99.90
9403;DHT22;4741;49.834;10.740;2023-06-04T01:17:40;9.30;99.90
9403;DHT22;4741;49.834;10.740;2023-06-04T01:25:05;8.80;99.90
9403;DHT22;4741;49.834;10.740;2023-06-04T01:27:36;8.90;99.90
9403;DHT22;4741;49.834;10.740;2023-06-04T01:32:29;8.60;99.90
9403;DHT22;4741;49.834;10.740;2023-06-04T01:34:56;8.20;99.90
9403;DHT22;4741;49.834;10.740;2023-06-04T01:37:23;8.00;99.90
9403;DHT22;4741;49.834;10.740;2023-06-04T01:39:50;8.20;99.90
9403;DHT22;4741;49.834;10.740;2023-06-04T01:42:17;8.40;99.90
9403;DHT22;4741;49.834;10.740;2023-06-04T01:44:43;8.40;99.90
9403;DHT22;4741;49.834;10.740;2023-06-04T01:47:10;8.30;99.90
9403;DHT22;4741;49.834;10.740;2023-06-04T01:49:37;8.20;99.90
9403;DHT22;4741;49.834;10.740;2023-06-04T01:52:04;8.20;99.90
9403;DHT22;4741;49.834;10.740;2023-06-04T01:54:32;8.30;99.90
9403;DHT22;4741;49.834;10.740;2023-06-04T01:57:00;8.40;99.90
9403;DHT22;4741;49.834;10.740;2023-06-04T01:59:27;8.30;99.90
9403;DHT22;4741;49.834;10.740;2023-06-04T02:01:53;8.30;99.90
9403;DHT22;4741;49.834;10.740;2023-06-04T02:04:20;8.30;99.90
9403;DHT22;4741;49.834;10.740;2023-06-04T02:06:47;8.30;99.90
9403;DHT22;4741;49.834;10.740;2023-06-04T02:09:15;8.30;99.90
9403;DHT22;4741;49.834;10.740;2023-06-04T02:11:42;8.30;99.90
9403;DHT22;4741;49.834;10.740;2023-06-04T02:14:08;8.30;99.90
9403;DHT22;4741;49.834;10.740;2023-06-04T02:16:35;8.20;99.90
9403;DHT22;4741;49.834;10.740;2023-06-04T02:19:02;8.30;99.90
9403;DHT22;4741;49.834;10.740;2023-06-04T02:21:29;8.30;99.90
9403;DHT22;4741;49.834;10.740;2023-06-04T02:23:56;8.30;99.90
9403;DHT22;4741;49.834;10.740;2023-06-04T02:26:22;8.20;99.90
9403;DHT22;4741;49.834;10.740;2023-06-04T02:28:51;8.10;99.90
9403;DHT22;4741;49.834;10.740;2023-06-04T02:31:18;8.10;99.90
9403;DHT22;4741;49.834;10.740;2023-06-04T02:33:44;8.10;99.90
9403;DHT22;4741;49.834;10.740;2023-06-04T02:36:11;8.10;99.90
9403;DHT22;4741;49.834;10.740;2023-06-04T02:38:38;7.90;99.90
9403;DHT22;4741;49.834;10.740;2023-06-04T02:41:04;7.90;99.90
9403;DHT22;4741;49.834;10.740;2023-06-04T02:43:32;7.90;99.90
9403;DHT22;4741;49.834;10.740;2023-06-04T02:45:59;7.90;99.90
9403;DHT22;4741;49.834;10.740;2023-06-04T02:50:53;7.80;99.90
9403;DHT22;4741;49.834;10.740;2023-06-04T02:53:19;7.60;99.90
9403;DHT22;4741;49.834;10.740;2023-06-04T02:58:14;7.50;99.90
9403;DHT22;4741;49.834;10.740;2023-06-04T03:00:42;7.50;99.90
9403;DHT22;4741;49.834;10.740;2023-06-04T03:03:09;7.50;99.90
9403;DHT22;4741;49.834;10.740;2023-06-04T03:05:35;7.50;99.90
9403;DHT22;4741;49.834;10.740;2023-06-04T03:08:03;7.40;99.90
9403;DHT22;4741;49.834;10.740;2023-06-04T03:10:30;7.60;99.90
9403;DHT22;4741;49.834;10.740;2023-06-04T03:12:57;7.50;99.90
9403;DHT22;4741;49.834;10.740;2023-06-04T03:15:24;7.50;99.90
9403;DHT22;4741;49.834;10.740;2023-06-04T03:17:51;7.40;99.90
9403;DHT22;4741;49.834;10.740;2023-06-04T03:20:18;7.40;99.90
9403;DHT22;4741;49.834;10.740;2023-06-04T03:22:44;7.30;99.90
9403;DHT22;4741;49.834;10.740;2023-06-04T03:25:11;7.30;99.90
9403;DHT22;4741;49.834;10.740;2023-06-04T03:27:37;7.20;99.90
9403;DHT22;4741;49.834;10.740;2023-06-04T03:30:04;7.20;99.90
9403;DHT22;4741;49.834;10.740;2023-06-04T03:32:31;7.30;99.90
9403;DHT22;4741;49.834;10.740;2023-06-04T03:34:58;7.40;99.90
9403;DHT22;4741;49.834;10.740;2023-06-04T03:37:24;7.20;99.90
9403;DHT22;4741;49.834;10.740;2023-06-04T03:39:52;7.20;99.90
9403;DHT22;4741;49.834;10.740;2023-06-04T03:42:19;7.00;99.90
9403;DHT22;4741;49.834;10.740;2023-06-04T03:44:45;6.90;99.90
9403;DHT22;4741;49.834;10.740;2023-06-04T03:47:12;7.10;99.90
9403;DHT22;4741;49.834;10.740;2023-06-04T03:49:39;7.00;99.90
9403;DHT22;4741;49.834;10.740;2023-06-04T03:52:06;7.10;99.90
9403;DHT22;4741;49.834;10.740;2023-06-04T03:54:33;7.10;99.90
9403;DHT22;4741;49.834;10.740;2023-06-04T03:57:00;7.20;99.90
9403;DHT22;4741;49.834;10.740;2023-06-04T03:59:28;7.30;99.90
9403;DHT22;4741;49.834;10.740;2023-06-04T04:01:55;7.40;99.90
9403;DHT22;4741;49.834;10.740;2023-06-04T04:04:21;7.10;99.90
9403;DHT22;4741;49.834;10.740;2023-06-04T04:06:48;7.00;99.90
9403;DHT22;4741;49.834;10.740;2023-06-04T04:09:15;6.90;99.90
9403;DHT22;4741;49.834;10.740;2023-06-04T04:11:41;6.80;99.90
9403;DHT22;4741;49.834;10.740;2023-06-04T04:14:08;6.80;99.90
9403;DHT22;4741;49.834;10.740;2023-06-04T04:16:35;6.90;99.90
9403;DHT22;4741;49.834;10.740;2023-06-04T04:19:02;7.10;99.90
9403;DHT22;4741;49.834;10.740;2023-06-04T04:21:28;7.30;99.90
9403;DHT22;4741;49.834;10.740;2023-06-04T04:23:55;7.30;99.90
9403;DHT22;4741;49.834;10.740;2023-06-04T04:26:22;7.40;99.90
9403;DHT22;4741;49.834;10.740;2023-06-04T04:28:48;7.50;99.90
9403;DHT22;4741;49.834;10.740;2023-06-04T04:31:16;7.60;99.90
9403;DHT22;4741;49.834;10.740;2023-06-04T04:33:44;8.00;99.90
9403;DHT22;4741;49.834;10.740;2023-06-04T04:36:10;8.00;99.90
9403;DHT22;4741;49.834;10.740;2023-06-04T04:38:40;8.00;99.90
9403;DHT22;4741;49.834;10.740;2023-06-04T04:41:07;8.10;99.90
9403;DHT22;4741;49.834;10.740;2023-06-04T04:43:35;8.00;99.90
9403;DHT22;4741;49.834;10.740;2023-06-04T04:46:02;8.00;99.90
9403;DHT22;4741;49.834;10.740;2023-06-04T04:48:29;8.10;99.90
9403;DHT22;4741;49.834;10.740;2023-06-04T04:50:56;8.00;99.90
9403;DHT22;4741;49.834;10.740;2023-06-04T04:53:22;8.20;99.90
9403;DHT22;4741;49.834;10.740;2023-06-04T04:55:49;8.30;99.90
9403;DHT22;4741;49.834;10.740;2023-06-04T04:58:16;8.20;99.90
9403;DHT22;4741;49.834;10.740;2023-06-04T05:00:43;8.20;99.90
9403;DHT22;4741;49.834;10.740;2023-06-04T05:03:10;8.20;99.90
9403;DHT22;4741;49.834;10.740;2023-06-04T05:05:36;8.30;99.90
9403;DHT22;4741;49.834;10.740;2023-06-04T05:08:04;8.50;99.90
9403;DHT22;4741;49.834;10.740;2023-06-04T05:10:30;8.70;99.90
9403;DHT22;4741;49.834;10.740;2023-06-04T05:12:58;8.80;99.90
9403;DHT22;4741;49.834;10.740;2023-06-04T05:15:25;8.90;99.90
9403;DHT22;4741;49.834;10.740;2023-06-04T05:17:53;8.90;99.90
9403;DHT22;4741;49.834;10.740;2023-06-04T05:20:20;8.90;99.90
9403;DHT22;4741;49.834;10.740;2023-06-04T05:22:47;9.00;99.90
9403;DHT22;4741;49.834;10.740;2023-06-04T05:25:14;9.20;99.90
9403;DHT22;4741;49.834;10.740;2023-06-04T05:27:41;9.30;99.90
9403;DHT22;4741;49.834;10.740;2023-06-04T05:30:08;9.70;99.90
9403;DHT22;4741;49.834;10.740;2023-06-04T05:32:35;9.70;99.90
9403;DHT22;4741;49.834;10.740;2023-06-04T05:35:07;9.80;99.90
9403;DHT22;4741;49.834;10.740;2023-06-04T05:37:35;10.00;99.90
9403;DHT22;4741;49.834;10.740;2023-06-04T05:40:04;10.40;99.90
9403;DHT22;4741;49.834;10.740;2023-06-04T05:42:32;10.50;99.90
9403;DHT22;4741;49.834;10.740;2023-06-04T05:44:59;10.70;99.90
9403;DHT22;4741;49.834;10.740;2023-06-04T05:47:27;10.80;99.90
9403;DHT22;4741;49.834;10.740;2023-06-04T05:49:55;10.90;99.90
9403;DHT22;4741;49.834;10.740;2023-06-04T05:54:49;11.30;99.90
9403;DHT22;4741;49.834;10.740;2023-06-04T05:57:16;11.90;99.90
9403;DHT22;4741;49.834;10.740;2023-06-04T05:59:43;11.60;99.90
9403;DHT22;4741;49.834;10.740;2023-06-04T06:19:20;13.40;99.90
9403;DHT22;4741;49.834;10.740;2023-06-04T06:21:47;13.60;99.90
9403;DHT22;4741;49.834;10.740;2023-06-04T06:26:41;13.90;99.90
9403;DHT22;4741;49.834;10.740;2023-06-04T06:29:09;14.10;99.90
9403;DHT22;4741;49.834;10.740;2023-06-04T06:31:35;14.30;99.90
9403;DHT22;4741;49.834;10.740;2023-06-04T06:34:02;14.60;99.90
9403;DHT22;4741;49.834;10.740;2023-06-04T06:36:29;15.20;99.90
9403;DHT22;4741;49.834;10.740;2023-06-04T06:41:23;15.00;99.90
9403;DHT22;4741;49.834;10.740;2023-06-04T06:43:50;16.20;99.90
9403;DHT22;4741;49.834;10.740;2023-06-04T06:46:17;15.30;99.90
9403;DHT22;4741;49.834;10.740;2023-06-04T06:51:12;15.60;99.90
9403;DHT22;4741;49.834;10.740;2023-06-04T06:53:38;16.60;99.90
9403;DHT22;4741;49.834;10.740;2023-06-04T06:58:33;15.90;99.90
9403;DHT22;4741;49.834;10.740;2023-06-04T07:00:59;17.00;99.90
9403;DHT22;4741;49.834;10.740;2023-06-04T07:03:26;17.20;99.90
9403;DHT22;4741;49.834;10.740;2023-06-04T07:08:20;16.30;99.90
9403;DHT22;4741;49.834;10.740;2023-06-04T07:10:47;17.70;99.90
9403;DHT22;4741;49.834;10.740;2023-06-04T07:20:36;17.30;99.90
9403;DHT22;4741;49.834;10.740;2023-06-04T07:27:57;17.40;99.90
9403;DHT22;4741;49.834;10.740;2023-06-04T07:32:51;17.90;99.90
9403;DHT22;4741;49.834;10.740;2023-06-04T07:35:18;19.50;99.90
9403;DHT22;4741;49.834;10.740;2023-06-04T07:40:15;18.30;99.90
9403;DHT22;4741;49.834;10.740;2023-06-04T07:42:42;20.00;99.90
9403;DHT22;4741;49.834;10.740;2023-06-04T07:50:04;18.90;99.90
9403;DHT22;4741;49.834;10.740;2023-06-04T07:52:32;19.30;99.90
9403;DHT22;4741;49.834;10.740;2023-06-04T07:54:59;20.40;99.90
9403;DHT22;4741;49.834;10.740;2023-06-04T07:59:53;19.70;99.90
9403;DHT22;4741;49.834;10.740;2023-06-04T08:02:19;20.80;99.90
9403;DHT22;4741;49.834;10.740;2023-06-04T08:04:46;21.40;99.90
9403;DHT22;4741;49.834;10.740;2023-06-04T08:07:14;21.10;99.90
9403;DHT22;4741;49.834;10.740;2023-06-04T08:09:40;21.20;99.90
9403;DHT22;4741;49.834;10.740;2023-06-04T08:12:07;21.90;99.90
9403;DHT22;4741;49.834;10.740;2023-06-04T08:17:03;20.50;99.90
9403;DHT22;4741;49.834;10.740;2023-06-04T08:21:57;20.60;99.90
9403;DHT22;4741;49.834;10.740;2023-06-04T08:24:24;21.70;99.90
9403;DHT22;4741;49.834;10.740;2023-06-04T08:26:51;20.70;99.90
9403;DHT22;4741;49.834;10.740;2023-06-04T08:29:18;21.80;99.90
9403;DHT22;4741;49.834;10.740;2023-06-04T08:31:45;21.90;99.90
9403;DHT22;4741;49.834;10.740;2023-06-04T08:34:12;20.90;99.90
9403;DHT22;4741;49.834;10.740;2023-06-04T08:36:38;20.90;99.90
9403;DHT22;4741;49.834;10.740;2023-06-04T08:39:05;22.50;99.90
9403;DHT22;4741;49.834;10.740;2023-06-04T08:41:41;21.40;99.40
9403;DHT22;4741;49.834;10.740;2023-06-04T08:46:39;21.10;98.80
9403;DHT22;4741;49.834;10.740;2023-06-04T08:49:09;21.00;98.90
9403;DHT22;4741;49.834;10.740;2023-06-04T08:51:38;21.30;98.50
9403;DHT22;4741;49.834;10.740;2023-06-04T08:54:05;21.60;98.20
9403;DHT22;4741;49.834;10.740;2023-06-04T08:56:32;21.70;98.40
9403;DHT22;4741;49.834;10.740;2023-06-04T08:59:00;21.70;97.00
9403;DHT22;4741;49.834;10.740;2023-06-04T09:01:28;21.80;95.80
9403;DHT22;4741;49.834;10.740;2023-06-04T09:03:54;22.00;95.30
9403;DHT22;4741;49.834;10.740;2023-06-04T09:06:25;22.00;95.80
9403;DHT22;4741;49.834;10.740;2023-06-04T09:08:53;22.00;93.80
9403;DHT22;4741;49.834;10.740;2023-06-04T09:11:39;21.80;93.30
9403;DHT22;4741;49.834;10.740;2023-06-04T09:14:07;22.20;94.40
9403;DHT22;4741;49.834;10.740;2023-06-04T09:16:47;22.30;93.90
9403;DHT22;4741;49.834;10.740;2023-06-04T09:19:16;22.40;92.90
9403;DHT22;4741;49.834;10.740;2023-06-04T09:24:17;22.60;97.70
9403;DHT22;4741;49.834;10.740;2023-06-04T09:26:44;22.50;91.60
9403;DHT22;4741;49.834;10.740;2023-06-04T09:29:11;22.90;91.20
9403;DHT22;4741;49.834;10.740;2023-06-04T09:31:38;23.30;90.70
9403;DHT22;4741;49.834;10.740;2023-06-04T09:34:06;22.40;88.90
9403;DHT22;4741;49.834;10.740;2023-06-04T09:36:33;23.60;91.70
9403;DHT22;4741;49.834;10.740;2023-06-04T09:39:02;22.70;90.10
9403;DHT22;4741;49.834;10.740;2023-06-04T09:41:29;23.20;89.50
9403;DHT22;4741;49.834;10.740;2023-06-04T09:44:00;23.00;94.60
9403;DHT22;4741;49.834;10.740;2023-06-04T09:46:30;22.40;95.50
9403;DHT22;4741;49.834;10.740;2023-06-04T09:49:01;23.60;84.30
9403;DHT22;4741;49.834;10.740;2023-06-04T09:51:28;22.50;85.10
9403;DHT22;4741;49.834;10.740;2023-06-04T09:53:55;22.80;96.30
9403;DHT22;4741;49.834;10.740;2023-06-04T09:56:22;22.90;84.30
9403;DHT22;4741;49.834;10.740;2023-06-04T09:58:49;23.40;86.10
9403;DHT22;4741;49.834;10.740;2023-06-04T10:01:17;23.50;85.90
9403;DHT22;4741;49.834;10.740;2023-06-04T10:03:46;23.70;83.80
9403;DHT22;4741;49.834;10.740;2023-06-04T10:06:13;24.00;88.10
9403;DHT22;4741;49.834;10.740;2023-06-04T10:11:10;23.90;77.50
9403;DHT22;4741;49.834;10.740;2023-06-04T10:13:38;24.40;81.00
9403;DHT22;4741;49.834;10.740;2023-06-04T10:16:07;24.20;79.80
9403;DHT22;4741;49.834;10.740;2023-06-04T10:18:46;24.10;82.30
9403;DHT22;4741;49.834;10.740;2023-06-04T10:21:13;24.50;80.70
9403;DHT22;4741;49.834;10.740;2023-06-04T10:23:44;24.20;78.40
9403;DHT22;4741;49.834;10.740;2023-06-04T10:26:15;24.80;83.60
9403;DHT22;4741;49.834;10.740;2023-06-04T10:28:42;24.60;77.50
9403;DHT22;4741;49.834;10.740;2023-06-04T10:31:09;25.20;79.30
9403;DHT22;4741;49.834;10.740;2023-06-04T10:33:36;25.30;80.20
9403;DHT22;4741;49.834;10.740;2023-06-04T10:36:17;26.00;77.40
9403;DHT22;4741;49.834;10.740;2023-06-04T10:38:51;25.40;77.90
9403;DHT22;4741;49.834;10.740;2023-06-04T10:41:22;25.40;72.10
9403;DHT22;4741;49.834;10.740;2023-06-04T10:43:50;25.20;70.30
9403;DHT22;4741;49.834;10.740;2023-06-04T10:46:17;25.30;68.20
9403;DHT22;4741;49.834;10.740;2023-06-04T10:48:51;25.00;72.20
9403;DHT22;4741;49.834;10.740;2023-06-04T10:53:58;25.00;76.30
9403;DHT22;4741;49.834;10.740;2023-06-04T10:56:28;25.60;73.50
9403;DHT22;4741;49.834;10.740;2023-06-04T10:58:55;25.70;73.00
9403;DHT22;4741;49.834;10.740;2023-06-04T11:01:25;26.00;75.60
9403;DHT22;4741;49.834;10.740;2023-06-04T11:08:47;26.00;69.20
9403;DHT22;4741;49.834;10.740;2023-06-04T11:11:15;25.70;68.70
9403;DHT22;4741;49.834;10.740;2023-06-04T11:13:42;25.60;64.90
9403;DHT22;4741;49.834;10.740;2023-06-04T11:16:16;26.40;72.00
9403;DHT22;4741;49.834;10.740;2023-06-04T11:18:43;26.60;70.50
9403;DHT22;4741;49.834;10.740;2023-06-04T11:21:10;27.10;68.30
9403;DHT22;4741;49.834;10.740;2023-06-04T11:23:41;27.40;66.60
9403;DHT22;4741;49.834;10.740;2023-06-04T11:26:09;27.80;69.00
9403;DHT22;4741;49.834;10.740;2023-06-04T11:28:35;27.50;71.20
9403;DHT22;4741;49.834;10.740;2023-06-04T11:31:02;27.60;64.90
9403;DHT22;4741;49.834;10.740;2023-06-04T11:33:30;27.20;63.30
9403;DHT22;4741;49.834;10.740;2023-06-04T11:35:56;26.30;62.40
9403;DHT22;4741;49.834;10.740;2023-06-04T11:38:23;26.20;65.80
9403;DHT22;4741;49.834;10.740;2023-06-04T11:40:59;27.40;64.90
9403;DHT22;4741;49.834;10.740;2023-06-04T11:43:28;27.70;66.80
9403;DHT22;4741;49.834;10.740;2023-06-04T11:45:55;27.60;60.80
9403;DHT22;4741;49.834;10.740;2023-06-04T11:48:22;27.70;64.10
9403;DHT22;4741;49.834;10.740;2023-06-04T11:50:49;28.30;67.40
9403;DHT22;4741;49.834;10.740;2023-06-04T11:53:16;27.40;59.80
9403;DHT22;4741;49.834;10.740;2023-06-04T11:55:43;27.50;63.80
9403;DHT22;4741;49.834;10.740;2023-06-04T11:58:10;27.80;62.50
9403;DHT22;4741;49.834;10.740;2023-06-04T12:00:37;26.90;59.80
9403;DHT22;4741;49.834;10.740;2023-06-04T12:03:04;27.10;60.90
9403;DHT22;4741;49.834;10.740;2023-06-04T12:05:31;27.50;63.30
9403;DHT22;4741;49.834;10.740;2023-06-04T12:08:05;28.00;64.60
9403;DHT22;4741;49.834;10.740;2023-06-04T12:10:39;32.40;65.30
9403;DHT22;4741;49.834;10.740;2023-06-04T12:13:06;29.20;60.10
9403;DHT22;4741;49.834;10.740;2023-06-04T12:15:33;29.10;60.00
9403;DHT22;4741;49.834;10.740;2023-06-04T12:18:00;29.20;62.20
9403;DHT22;4741;49.834;10.740;2023-06-04T12:20:33;29.10;59.70
9403;DHT22;4741;49.834;10.740;2023-06-04T12:23:02;29.60;62.80
9403;DHT22;4741;49.834;10.740;2023-06-04T12:25:29;29.40;59.40
9403;DHT22;4741;49.834;10.740;2023-06-04T12:30:34;29.20;60.00
9403;DHT22;4741;49.834;10.740;2023-06-04T12:33:01;28.90;56.80
9403;DHT22;4741;49.834;10.740;2023-06-04T12:35:28;28.60;56.00
9403;DHT22;4741;49.834;10.740;2023-06-04T12:37:54;29.20;58.30
9403;DHT22;4741;49.834;10.740;2023-06-04T12:40:21;30.30;58.50
9403;DHT22;4741;49.834;10.740;2023-06-04T12:45:24;30.30;56.30
9403;DHT22;4741;49.834;10.740;2023-06-04T12:47:51;30.20;56.80
9403;DHT22;4741;49.834;10.740;2023-06-04T12:50:18;30.40;56.10
9403;DHT22;4741;49.834;10.740;2023-06-04T12:52:48;29.90;58.20
9403;DHT22;4741;49.834;10.740;2023-06-04T12:55:14;30.20;56.20
9403;DHT22;4741;49.834;10.740;2023-06-04T12:57:41;30.10;57.40
9403;DHT22;4741;49.834;10.740;2023-06-04T13:00:11;30.60;57.00
9403;DHT22;4741;49.834;10.740;2023-06-04T13:07:32;31.50;56.60
9403;DHT22;4741;49.834;10.740;2023-06-04T13:14:54;32.70;52.40
9403;DHT22;4741;49.834;10.740;2023-06-04T13:17:22;32.50;53.60
9403;DHT22;4741;49.834;10.740;2023-06-04T13:19:49;32.60;53.00
9403;DHT22;4741;49.834;10.740;2023-06-04T13:22:16;32.10;55.30
9403;DHT22;4741;49.834;10.740;2023-06-04T13:24:43;31.40;52.30
9403;DHT22;4741;49.834;10.740;2023-06-04T13:27:09;31.40;52.70
9403;DHT22;4741;49.834;10.740;2023-06-04T13:29:36;31.40;54.40
9403;DHT22;4741;49.834;10.740;2023-06-04T13:32:03;30.90;53.80
9403;DHT22;4741;49.834;10.740;2023-06-04T13:34:31;31.20;54.20
9403;DHT22;4741;49.834;10.740;2023-06-04T13:36:58;31.30;52.60
9403;DHT22;4741;49.834;10.740;2023-06-04T13:39:25;30.90;54.60
9403;DHT22;4741;49.834;10.740;2023-06-04T13:41:52;31.10;52.40
9403;DHT22;4741;49.834;10.740;2023-06-04T13:44:18;31.20;53.70
9403;DHT22;4741;49.834;10.740;2023-06-04T13:46:46;31.30;50.60
9403;DHT22;4741;49.834;10.740;2023-06-04T13:49:13;31.10;53.40
9403;DHT22;4741;49.834;10.740;2023-06-04T13:51:40;31.40;51.00
9403;DHT22;4741;49.834;10.740;2023-06-04T13:54:07;31.00;50.00
9403;DHT22;4741;49.834;10.740;2023-06-04T13:56:36;30.30;51.50
9403;DHT22;4741;49.834;10.740;2023-06-04T13:59:03;30.50;52.30
9403;DHT22;4741;49.834;10.740;2023-06-04T14:01:30;30.70;51.40
9403;DHT22;4741;49.834;10.740;2023-06-04T14:03:57;30.50;51.10
9403;DHT22;4741;49.834;10.740;2023-06-04T14:06:25;31.30;53.00
9403;DHT22;4741;49.834;10.740;2023-06-04T14:08:52;31.80;53.80
9403;DHT22;4741;49.834;10.740;2023-06-04T14:11:18;32.10;53.80
9403;DHT22;4741;49.834;10.740;2023-06-04T14:13:45;32.20;52.10
9403;DHT22;4741;49.834;10.740;2023-06-04T14:16:12;32.30;50.60
9403;DHT22;4741;49.834;10.740;2023-06-04T14:18:39;32.50;52.90
9403;DHT22;4741;49.834;10.740;2023-06-04T14:21:06;32.60;50.20
9403;DHT22;4741;49.834;10.740;2023-06-04T14:26:00;32.40;49.00
9403;DHT22;4741;49.834;10.740;2023-06-04T14:28:27;32.70;51.40
9403;DHT22;4741;49.834;10.740;2023-06-04T14:30:54;32.50;50.20
9403;DHT22;4741;49.834;10.740;2023-06-04T14:33:21;32.40;50.50
9403;DHT22;4741;49.834;10.740;2023-06-04T14:35:48;32.50;50.30
9403;DHT22;4741;49.834;10.740;2023-06-04T14:38:14;32.70;52.10
9403;DHT22;4741;49.834;10.740;2023-06-04T14:40:42;32.80;49.80
9403;DHT22;4741;49.834;10.740;2023-06-04T14:43:10;32.80;49.00
9403;DHT22;4741;49.834;10.740;2023-06-04T14:45:38;31.50;48.90
9403;DHT22;4741;49.834;10.740;2023-06-04T14:48:06;32.60;49.90
9403;DHT22;4741;49.834;10.740;2023-06-04T14:50:42;31.40;48.10
9403;DHT22;4741;49.834;10.740;2023-06-04T14:53:09;30.90;51.30
9403;DHT22;4741;49.834;10.740;2023-06-04T14:55:36;31.90;51.60
9403;DHT22;4741;49.834;10.740;2023-06-04T14:58:03;32.40;50.00
9403;DHT22;4741;49.834;10.740;2023-06-04T15:00:30;32.30;50.30
9403;DHT22;4741;49.834;10.740;2023-06-04T15:02:57;32.60;50.20
9403;DHT22;4741;49.834;10.740;2023-06-04T15:05:24;33.30;49.30
9403;DHT22;4741;49.834;10.740;2023-06-04T15:07:51;32.90;49.00
9403;DHT22;4741;49.834;10.740;2023-06-04T15:10:17;33.40;48.10
9403;DHT22;4741;49.834;10.740;2023-06-04T15:12:44;32.80;48.10
9403;DHT22;4741;49.834;10.740;2023-06-04T15:15:11;31.90;46.70
9403;DHT22;4741;49.834;10.740;2023-06-04T15:17:38;32.50;48.50
9403;DHT22;4741;49.834;10.740;2023-06-04T15:20:05;32.50;48.90
9403;DHT22;4741;49.834;10.740;2023-06-04T15:22:32;32.60;48.30
9403;DHT22;4741;49.834;10.740;2023-06-04T15:27:25;32.10;48.70
9403;DHT22;4741;49.834;10.740;2023-06-04T15:29:52;32.60;48.00
9403;DHT22;4741;49.834;10.740;2023-06-04T15:32:19;32.80;49.10
9403;DHT22;4741;49.834;10.740;2023-06-04T15:34:46;32.30;46.10
9403;DHT22;4741;49.834;10.740;2023-06-04T15:37:13;32.30;47.80
9403;DHT22;4741;49.834;10.740;2023-06-04T15:39:40;32.50;48.50
9403;DHT22;4741;49.834;10.740;2023-06-04T15:42:07;32.00;49.20
9403;DHT22;4741;49.834;10.740;2023-06-04T15:44:34;32.40;48.30
9403;DHT22;4741;49.834;10.740;2023-06-04T15:47:00;32.60;47.40
9403;DHT22;4741;49.834;10.740;2023-06-04T15:49:27;32.50;44.90
9403;DHT22;4741;49.834;10.740;2023-06-04T15:51:55;32.70;48.40
9403;DHT22;4741;49.834;10.740;2023-06-04T15:54:22;32.60;47.30
9403;DHT22;4741;49.834;10.740;2023-06-04T15:57:09;33.20;47.40
9403;DHT22;4741;49.834;10.740;2023-06-04T15:59:35;32.80;46.70
9403;DHT22;4741;49.834;10.740;2023-06-04T16:02:02;33.30;46.50
9403;DHT22;4741;49.834;10.740;2023-06-04T16:04:29;33.40;46.60
9403;DHT22;4741;49.834;10.740;2023-06-04T16:06:55;33.00;47.00
9403;DHT22;4741;49.834;10.740;2023-06-04T16:09:22;33.10;45.10
9403;DHT22;4741;49.834;10.740;2023-06-04T16:11:49;33.10;44.60
9403;DHT22;4741;49.834;10.740;2023-06-04T16:14:15;32.50;46.20
9403;DHT22;4741;49.834;10.740;2023-06-04T16:16:42;32.20;45.10
9403;DHT22;4741;49.834;10.740;2023-06-04T16:19:13;31.90;45.60
9403;DHT22;4741;49.834;10.740;2023-06-04T16:21:39;31.50;45.80
9403;DHT22;4741;49.834;10.740;2023-06-04T16:24:06;31.60;45.80
9403;DHT22;4741;49.834;10.740;2023-06-04T16:26:33;32.50;45.80
9403;DHT22;4741;49.834;10.740;2023-06-04T16:29:00;32.30;46.00
9403;DHT22;4741;49.834;10.740;2023-06-04T16:31:26;32.70;45.20
9403;DHT22;4741;49.834;10.740;2023-06-04T16:33:53;32.10;45.30
9403;DHT22;4741;49.834;10.740;2023-06-04T16:36:20;32.10;45.90
9403;DHT22;4741;49.834;10.740;2023-06-04T16:38:47;32.20;45.70
9403;DHT22;4741;49.834;10.740;2023-06-04T16:41:14;32.30;45.30
9403;DHT22;4741;49.834;10.740;2023-06-04T16:43:40;32.30;45.00
9403;DHT22;4741;49.834;10.740;2023-06-04T16:46:07;32.40;45.80
9403;DHT22;4741;49.834;10.740;2023-06-04T16:48:34;31.90;45.10
9403;DHT22;4741;49.834;10.740;2023-06-04T16:51:04;32.00;46.10
9403;DHT22;4741;49.834;10.740;2023-06-04T16:53:31;30.70;45.80
9403;DHT22;4741;49.834;10.740;2023-06-04T16:55:58;28.80;47.70
9403;DHT22;4741;49.834;10.740;2023-06-04T16:58:25;28.20;49.90
9403;DHT22;4741;49.834;10.740;2023-06-04T17:03:19;26.70;51.90
9403;DHT22;4741;49.834;10.740;2023-06-04T17:05:46;26.60;53.50
9403;DHT22;4741;49.834;10.740;2023-06-04T17:08:13;26.10;52.80
9403;DHT22;4741;49.834;10.740;2023-06-04T17:10:40;25.70;51.90
9403;DHT22;4741;49.834;10.740;2023-06-04T17:13:06;25.40;53.70
9403;DHT22;4741;49.834;10.740;2023-06-04T17:15:34;25.40;55.10
9403;DHT22;4741;49.834;10.740;2023-06-04T17:18:01;25.00;54.60
9403;DHT22;4741;49.834;10.740;2023-06-04T17:20:28;25.20;55.40
9403;DHT22;4741;49.834;10.740;2023-06-04T17:22:59;25.20;55.80
9403;DHT22;4741;49.834;10.740;2023-06-04T17:25:27;24.60;57.40
9403;DHT22;4741;49.834;10.740;2023-06-04T17:27:54;24.40;56.00
9403;DHT22;4741;49.834;10.740;2023-06-04T17:30:21;24.40;56.80
9403;DHT22;4741;49.834;10.740;2023-06-04T17:32:51;24.20;58.10
9403;DHT22;4741;49.834;10.740;2023-06-04T17:35:18;24.00;57.10
9403;DHT22;4741;49.834;10.740;2023-06-04T17:37:44;24.00;58.10
9403;DHT22;4741;49.834;10.740;2023-06-04T17:40:11;24.10;58.00
9403;DHT22;4741;49.834;10.740;2023-06-04T17:42:38;23.80;57.50
9403;DHT22;4741;49.834;10.740;2023-06-04T17:45:06;23.80;58.20
9403;DHT22;4741;49.834;10.740;2023-06-04T17:47:36;23.70;58.70